HE22 weather

Baluza Airport
Port Said Governorate, Egypt

Public forecast

Using degrees Celsius for public forecast. Weather courtesy of forecast.io.

METAR (pilot weather report)

Report is more than 6 hours old.

Closest report is Port Said Airport, 23.2 nm (43.0 km) NW. Retrieved 2019/03/21 09:00 UTC (2 days ago):

HEPS 210900Z 34007KT 9999 SCT025 19/14 Q1018 NOSIG

TAF (pilot weather forecast)

Forecast is more than 12 hours old.

Closest forecast is Port Said Airport, 23.2 nm (43.0 km) NW. Retrieved 2019/03/21 18:00 UTC (2 days ago):

TAF COR HEPS 211728Z 2118/2224 02010KT CAVOK TEMPO 2121/2206 3000 BR PROB30 TEMPO 2202/2206 1000 BECMG 2208/2210 9999 SCT025